Terminal Aerodrome Forecast
Issued by NWS

Home | Current Version | Previous Version | Graphics & Text | Print | Product List | Glossary On
Versions: 1 2 3 4 5 6 7 8 9 10 11 12 13 14 15 16 17 18 19 20 21 22 23 24
000
FTUS43 KLOT 211136
TAFDPA
TAF
KDPA 211136Z 2112/2212 02004KT P6SM FEW250
     FM211500 06007KT P6SM SCT250
     FM212000 15007KT P6SM SCT120 BKN200
     FM220100 16006KT P6SM BKN100 PROB30 2202/2206 6SM -TSRA
      BKN080CB
     FM220800 20010KT P6SM BKN100=

USA.gov is the U.S. government's official web portal to all federal, state and local government web resources and services.